Time;durP1;ratioP1;P1;durP2;ratioP2;P2;SDS_P1;SDS_P2;PMS_P1;PMS_P2;Temp;Humidity;BMP_temperature;BMP_pressure;BME280_temperature;BME280_humidity;BME280_pressure;Samples;Min_cycle;Max_cycle;Signal;HPM_P1;HPM_P2
2023/07/30 00:02:23;;;;;;;17.08;3.75;;;44.70;34.40;;;;;;5070500;28;20065;-63
2023/07/30 00:04:50;;;;;;;18.08;3.75;;;44.60;34.30;;;;;;5068772;28;20377;-63
2023/07/30 00:07:16;;;;;;;14.57;3.00;;;44.50;34.40;;;;;;5069734;28;20039;-61
2023/07/30 00:09:42;;;;;;;13.55;3.33;;;44.50;34.90;;;;;;5069181;28;20062;-62
2023/07/30 00:12:10;;;;;;;22.23;3.20;;;44.30;34.30;;;;;;5069104;28;20495;-63
2023/07/30 00:14:36;;;;;;;14.18;3.38;;;44.30;34.40;;;;;;5068280;28;20156;-63
2023/07/30 00:17:03;;;;;;;10.95;2.85;;;44.40;34.70;;;;;;5069179;28;20390;-63
2023/07/30 00:19:30;;;;;;;9.70;3.22;;;44.30;34.30;;;;;;5068388;28;20052;-62
2023/07/30 00:21:56;;;;;;;19.95;3.78;;;44.30;34.50;;;;;;5069179;28;20534;-63
2023/07/30 00:24:23;;;;;;;30.70;3.85;;;44.20;34.20;;;;;;5068350;28;20057;-63
2023/07/30 00:26:49;;;;;;;34.60;4.72;;;44.20;34.60;;;;;;5075974;28;20089;-63
2023/07/30 00:29:16;;;;;;;27.98;3.50;;;44.00;35.10;;;;;;5067553;28;20113;-64
2023/07/30 00:31:42;;;;;;;52.05;4.78;;;43.90;35.10;;;;;;5068481;28;20062;-64
2023/07/30 00:34:09;;;;;;;41.72;4.47;;;43.80;35.20;;;;;;5071086;28;20535;-62
2023/07/30 00:36:35;;;;;;;42.22;4.80;;;43.60;35.30;;;;;;5068426;28;20556;-65
2023/07/30 00:39:01;;;;;;;35.00;4.10;;;43.60;35.10;;;;;;5068207;28;20090;-62
2023/07/30 00:41:28;;;;;;;25.40;2.83;;;43.40;35.10;;;;;;5068808;28;20074;-64
2023/07/30 00:43:54;;;;;;;27.45;3.58;;;43.20;34.60;;;;;;5068988;28;20133;-63
2023/07/30 00:46:21;;;;;;;32.80;3.13;;;43.10;34.30;;;;;;5068171;28;20043;-63
2023/07/30 00:48:47;;;;;;;29.40;4.35;;;43.00;34.00;;;;;;5068206;28;20079;-64
2023/07/30 00:51:15;;;;;;;28.52;3.60;;;42.80;34.30;;;;;;5068141;28;21357;-63
2023/07/30 00:53:41;;;;;;;20.55;2.53;;;42.60;33.90;;;;;;5067208;28;20057;-63
2023/07/30 00:56:08;;;;;;;17.17;3.00;;;42.50;33.70;;;;;;5067303;28;20125;-62
2023/07/30 00:58:35;;;;;;;26.95;3.47;;;42.30;33.60;;;;;;5071556;28;20064;-59
2023/07/30 01:01:01;;;;;;;14.30;2.70;;;42.20;33.70;;;;;;5066339;28;20108;-61
2023/07/30 01:03:28;;;;;;;10.40;2.65;;;42.10;33.80;;;;;;5067151;28;20786;-63
2023/07/30 01:05:54;;;;;;;13.75;2.80;;;42.00;33.70;;;;;;5067110;28;20396;-64
2023/07/30 01:08:21;;;;;;;17.38;2.58;;;41.90;33.20;;;;;;5068712;28;20115;-67
2023/07/30 01:10:48;;;;;;;21.70;2.85;;;41.80;33.20;;;;;;5070771;28;20080;-63
2023/07/30 01:13:16;;;;;;;14.52;2.50;;;41.70;33.00;;;;;;5065561;28;20082;-64
2023/07/30 01:15:43;;;;;;;26.25;2.85;;;41.70;33.10;;;;;;5068145;28;20063;-64
2023/07/30 01:18:10;;;;;;;16.08;2.85;;;41.60;32.80;;;;;;5065967;28;20100;-62
2023/07/30 01:20:36;;;;;;;19.35;2.17;;;41.60;32.70;;;;;;5067985;28;20102;-61
2023/07/30 01:23:03;;;;;;;21.92;3.13;;;41.50;32.80;;;;;;5066616;28;20545;-63
2023/07/30 01:25:33;;;;;;;22.48;3.13;;;41.40;32.90;;;;;;5068805;28;20060;-64
2023/07/30 01:28:02;;;;;;;12.65;2.25;;;41.40;33.00;;;;;;5067069;28;20068;-62
2023/07/30 01:30:39;;;;;;;9.68;2.13;;;41.30;32.80;;;;;;5068711;28;20112;-64
2023/07/30 01:33:06;;;;;;;18.15;3.03;;;41.30;33.10;;;;;;5064535;28;20079;-64
2023/07/30 01:35:34;;;;;;;14.93;2.63;;;41.20;32.90;;;;;;5066992;28;20048;-63
2023/07/30 01:38:03;;;;;;;14.90;2.88;;;41.10;33.10;;;;;;5066899;28;20509;-63
2023/07/30 01:40:30;;;;;;;21.40;2.65;;;41.00;33.00;;;;;;5071866;28;20062;-63
2023/07/30 01:42:56;;;;;;;18.77;3.03;;;41.00;33.20;;;;;;5068292;28;20105;-63
2023/07/30 01:45:22;;;;;;;11.18;2.60;;;40.90;33.20;;;;;;5067598;28;20053;-63
2023/07/30 01:47:49;;;;;;;17.20;2.92;;;40.90;33.10;;;;;;5068314;28;20412;-64
2023/07/30 01:50:15;;;;;;;15.73;3.22;;;40.90;33.30;;;;;;5067394;28;20083;-64
2023/07/30 01:52:42;;;;;;;18.27;2.58;;;40.80;33.20;;;;;;5067527;28;20741;-62
2023/07/30 01:55:09;;;;;;;19.00;2.83;;;40.80;33.40;;;;;;5066205;28;20425;-62
2023/07/30 01:57:35;;;;;;;11.00;2.75;;;40.70;33.30;;;;;;5069361;28;20056;-63
2023/07/30 02:00:03;;;;;;;15.93;2.83;;;40.70;33.50;;;;;;5070979;28;20232;-62
2023/07/30 02:02:29;;;;;;;22.02;3.47;;;40.60;33.60;;;;;;5066547;28;20167;-62
2023/07/30 02:04:55;;;;;;;25.73;3.42;;;40.60;33.70;;;;;;5064498;28;20053;-64
2023/07/30 02:07:22;;;;;;;25.17;3.85;;;40.60;33.50;;;;;;5065819;28;20057;-63
2023/07/30 02:09:48;;;;;;;24.58;3.60;;;40.60;33.50;;;;;;5066607;28;20172;-63
2023/07/30 02:12:15;;;;;;;27.60;3.00;;;40.60;33.60;;;;;;5065848;28;20065;-63
2023/07/30 02:14:41;;;;;;;23.45;3.50;;;40.60;33.70;;;;;;5066200;28;20608;-62
2023/07/30 02:17:07;;;;;;;24.52;3.53;;;40.50;33.80;;;;;;5065274;28;20535;-63
2023/07/30 02:19:34;;;;;;;21.55;3.38;;;40.50;33.80;;;;;;5064934;28;20160;-62
2023/07/30 02:22:00;;;;;;;29.23;3.22;;;40.40;33.90;;;;;;5064518;28;20080;-63
2023/07/30 02:24:26;;;;;;;26.67;3.47;;;40.40;33.80;;;;;;5065219;28;20060;-63
2023/07/30 02:26:53;;;;;;;27.75;3.88;;;40.30;34.00;;;;;;5064708;28;20082;-62
2023/07/30 02:29:19;;;;;;;19.10;4.00;;;40.30;34.10;;;;;;5065203;28;20515;-62
2023/07/30 02:31:46;;;;;;;19.30;4.03;;;40.30;34.10;;;;;;5071384;28;20077;-62
2023/07/30 02:34:12;;;;;;;29.30;4.72;;;40.30;34.50;;;;;;5069880;28;20070;-64
2023/07/30 02:36:38;;;;;;;34.55;5.07;;;40.20;34.40;;;;;;5070276;28;20062;-64
2023/07/30 02:39:05;;;;;;;29.60;5.00;;;40.20;34.50;;;;;;5065132;28;20070;-62
2023/07/30 02:41:31;;;;;;;21.25;4.88;;;40.10;34.70;;;;;;5067549;28;20128;-63
2023/07/30 02:43:57;;;;;;;15.98;5.85;;;40.10;35.20;;;;;;5065328;28;20423;-63
2023/07/30 02:46:24;;;;;;;25.55;4.85;;;40.10;35.00;;;;;;5069213;28;20396;-62
2023/07/30 02:48:50;;;;;;;15.27;4.97;;;40.00;34.90;;;;;;5064470;28;20058;-62
2023/07/30 02:51:17;;;;;;;23.88;4.97;;;40.00;35.00;;;;;;5063807;28;20070;-61
2023/07/30 02:53:46;;;;;;;28.60;5.15;;;39.90;35.20;;;;;;5064581;28;20063;-62
2023/07/30 02:56:12;;;;;;;21.67;5.55;;;39.90;35.20;;;;;;5065064;28;20067;-61
2023/07/30 02:58:39;;;;;;;24.60;5.25;;;39.80;35.10;;;;;;5066575;28;20067;-60
2023/07/30 03:01:09;;;;;;;25.52;5.10;;;39.80;35.40;;;;;;5064372;28;20091;-64
2023/07/30 03:03:35;;;;;;;29.00;4.85;;;39.80;35.40;;;;;;5069138;28;20061;-63
2023/07/30 03:06:02;;;;;;;24.02;4.13;;;39.70;35.30;;;;;;5067095;28;20527;-63
2023/07/30 03:08:28;;;;;;;15.20;3.35;;;39.70;35.40;;;;;;5065633;28;20122;-63
2023/07/30 03:10:58;;;;;;;16.45;3.25;;;39.70;35.40;;;;;;5065404;28;20445;-63
2023/07/30 03:13:25;;;;;;;25.13;3.47;;;39.70;35.70;;;;;;5065372;28;20067;-63
2023/07/30 03:15:52;;;;;;;34.95;4.10;;;39.60;35.70;;;;;;5066453;28;20531;-64
2023/07/30 03:18:18;;;;;;;25.48;3.85;;;39.60;35.80;;;;;;5068341;28;20075;-64
2023/07/30 03:20:45;;;;;;;33.50;4.57;;;39.50;35.80;;;;;;5074784;28;20081;-63
2023/07/30 03:23:11;;;;;;;21.13;4.32;;;39.50;35.90;;;;;;5072370;28;20145;-62
2023/07/30 03:25:37;;;;;;;22.58;3.97;;;39.50;36.10;;;;;;5068857;28;20079;-63
2023/07/30 03:28:04;;;;;;;19.30;4.20;;;39.40;36.00;;;;;;5076511;28;20489;-62
2023/07/30 03:30:30;;;;;;;30.42;4.47;;;39.40;36.10;;;;;;5068082;28;20179;-62
2023/07/30 03:32:57;;;;;;;24.08;4.07;;;39.40;36.40;;;;;;5069466;28;20435;-63
2023/07/30 03:35:23;;;;;;;27.00;3.83;;;39.40;36.50;;;;;;5068613;28;20056;-63
2023/07/30 03:37:50;;;;;;;23.40;3.83;;;39.30;36.60;;;;;;5074871;28;20067;-62
2023/07/30 03:40:16;;;;;;;18.45;3.75;;;39.30;36.90;;;;;;5072003;28;20112;-63
2023/07/30 03:42:42;;;;;;;29.08;4.88;;;39.20;37.10;;;;;;5072234;28;20158;-63
2023/07/30 03:45:09;;;;;;;24.15;4.65;;;39.20;37.20;;;;;;5072391;28;20155;-63
2023/07/30 03:47:35;;;;;;;28.33;5.35;;;39.10;37.30;;;;;;5068266;28;20147;-63
2023/07/30 03:50:02;;;;;;;22.98;5.78;;;39.10;37.50;;;;;;5067868;28;20062;-64
2023/07/30 03:52:28;;;;;;;21.95;5.07;;;39.00;37.50;;;;;;5068455;28;20613;-63
2023/07/30 03:54:55;;;;;;;21.63;4.82;;;38.90;37.50;;;;;;5067574;28;20067;-62
2023/07/30 03:57:21;;;;;;;20.33;4.70;;;38.90;37.60;;;;;;5067687;28;20080;-62
2023/07/30 03:59:47;;;;;;;22.42;4.97;;;38.80;37.60;;;;;;5067308;28;20075;-63
2023/07/30 04:02:15;;;;;;;20.23;4.70;;;38.80;37.50;;;;;;5068095;28;20675;-63
2023/07/30 04:04:46;;;;;;;28.33;4.97;;;38.80;37.50;;;;;;5068659;28;20081;-63
2023/07/30 04:07:12;;;;;;;21.05;6.70;;;38.80;37.50;;;;;;5072290;28;20084;-65
2023/07/30 04:09:39;;;;;;;22.48;5.70;;;38.70;37.40;;;;;;5068072;28;20403;-62
2023/07/30 04:12:05;;;;;;;23.77;6.05;;;38.70;37.50;;;;;;5066883;28;20170;-64
2023/07/30 04:14:32;;;;;;;24.33;5.43;;;38.70;37.50;;;;;;5068138;28;20160;-63
2023/07/30 04:16:58;;;;;;;19.77;5.22;;;38.60;37.50;;;;;;5069238;28;20152;-62
2023/07/30 04:19:25;;;;;;;22.20;5.60;;;38.60;37.30;;;;;;5068062;28;20433;-64
2023/07/30 04:21:51;;;;;;;32.35;5.00;;;38.60;37.30;;;;;;5067654;28;20091;-62
2023/07/30 04:24:18;;;;;;;24.73;5.00;;;38.60;37.30;;;;;;5066698;28;20068;-63
2023/07/30 04:26:44;;;;;;;18.85;4.53;;;38.50;37.30;;;;;;5067913;28;20551;-62
2023/07/30 04:29:11;;;;;;;22.55;5.82;;;38.50;37.20;;;;;;5067295;28;20175;-63
2023/07/30 04:31:37;;;;;;;19.92;5.70;;;38.40;37.30;;;;;;5067908;28;20084;-63
2023/07/30 04:34:03;;;;;;;29.90;5.13;;;38.40;37.20;;;;;;5068296;28;20149;-64
2023/07/30 04:36:30;;;;;;;22.13;5.38;;;38.40;37.30;;;;;;5068118;28;20076;-63
2023/07/30 04:38:56;;;;;;;28.15;5.20;;;38.40;37.30;;;;;;5066908;28;20088;-62
2023/07/30 04:41:23;;;;;;;21.10;4.65;;;38.30;37.30;;;;;;5066785;28;20175;-62
2023/07/30 04:43:49;;;;;;;24.75;4.90;;;38.30;37.30;;;;;;5072158;28;20076;-63
2023/07/30 04:46:15;;;;;;;12.48;4.25;;;38.30;37.30;;;;;;5067190;28;20073;-63
2023/07/30 04:48:42;;;;;;;18.05;4.13;;;38.30;37.20;;;;;;5067236;28;20170;-63
2023/07/30 04:51:08;;;;;;;18.63;4.72;;;38.20;37.30;;;;;;5070868;28;20092;-64
2023/07/30 04:53:35;;;;;;;23.60;4.57;;;38.20;37.20;;;;;;5069073;28;20082;-64
2023/07/30 04:56:01;;;;;;;24.40;3.90;;;38.20;37.30;;;;;;5069816;28;20531;-64
2023/07/30 04:58:27;;;;;;;14.15;3.60;;;38.20;37.50;;;;;;5068494;28;20138;-62
2023/07/30 05:00:54;;;;;;;22.15;3.90;;;38.10;37.40;;;;;;5074985;28;20088;-63
2023/07/30 05:03:20;;;;;;;13.85;3.42;;;38.10;37.60;;;;;;5068157;28;20123;-62
2023/07/30 05:05:47;;;;;;;25.48;4.20;;;38.00;37.70;;;;;;5071632;28;20083;-63
2023/07/30 05:08:13;;;;;;;20.27;3.60;;;38.00;37.90;;;;;;5071062;28;20080;-63
2023/07/30 05:10:40;;;;;;;27.30;3.85;;;38.00;38.00;;;;;;5067026;28;20176;-61
2023/07/30 05:13:06;;;;;;;25.05;4.40;;;38.00;38.20;;;;;;5067751;28;20215;-59
2023/07/30 05:15:32;;;;;;;20.63;4.32;;;37.90;38.10;;;;;;5069674;28;20086;-60
2023/07/30 05:17:59;;;;;;;23.63;5.22;;;37.80;38.40;;;;;;5068000;28;20103;-61
2023/07/30 05:20:25;;;;;;;37.92;6.10;;;37.80;38.60;;;;;;5068908;28;20101;-61
2023/07/30 05:22:52;;;;;;;64.00;7.78;;;37.80;39.40;;;;;;5068345;28;20076;-62
2023/07/30 05:25:18;;;;;;;38.92;6.10;;;37.80;39.10;;;;;;5072836;28;20094;-63
2023/07/30 05:27:44;;;;;;;95.38;9.50;;;37.90;39.50;;;;;;5070361;28;20127;-61
2023/07/30 05:30:11;;;;;;;52.05;7.70;;;38.00;39.50;;;;;;5070362;28;20220;-61
2023/07/30 05:32:37;;;;;;;31.95;5.40;;;38.00;39.80;;;;;;5069152;28;20075;-60
2023/07/30 05:35:04;;;;;;;22.90;4.65;;;38.10;40.10;;;;;;5067195;28;20084;-62
2023/07/30 05:37:31;;;;;;;25.17;4.97;;;38.10;39.70;;;;;;5070349;28;20139;-61
2023/07/30 05:39:57;;;;;;;20.83;4.30;;;38.10;39.90;;;;;;5068269;28;20075;-60
2023/07/30 05:42:24;;;;;;;25.75;4.53;;;38.10;39.80;;;;;;5079478;28;20089;-62
2023/07/30 05:44:50;;;;;;;24.73;4.53;;;38.10;40.00;;;;;;5069551;28;20080;-59
2023/07/30 05:47:16;;;;;;;18.08;4.20;;;38.10;39.90;;;;;;5070924;28;20085;-60
2023/07/30 05:49:43;;;;;;;15.25;4.00;;;38.10;40.10;;;;;;5066621;28;20075;-61
2023/07/30 05:52:09;;;;;;;16.73;4.57;;;38.10;40.10;;;;;;5065443;28;20092;-60
2023/07/30 05:54:35;;;;;;;19.20;3.97;;;38.20;40.40;;;;;;5066491;28;20252;-60
2023/07/30 05:57:02;;;;;;;17.40;3.85;;;38.10;40.90;;;;;;5066111;28;20077;-61
2023/07/30 05:59:28;;;;;;;16.92;3.90;;;38.00;40.80;;;;;;5070906;28;20083;-60
2023/07/30 06:01:59;;;;;;;24.40;3.10;;;38.00;40.90;;;;;;5070639;28;20569;-61
2023/07/30 06:04:25;;;;;;;26.83;4.93;;;38.00;41.30;;;;;;5065528;28;20088;-61
2023/07/30 06:06:51;;;;;;;16.23;4.00;;;37.90;41.20;;;;;;5066769;28;20084;-60
2023/07/30 06:09:18;;;;;;;19.00;4.00;;;38.00;41.30;;;;;;5067232;28;20566;-60
2023/07/30 06:11:44;;;;;;;17.00;5.68;;;37.90;41.70;;;;;;5066510;28;20089;-59
2023/07/30 06:14:11;;;;;;;16.23;5.82;;;37.90;41.60;;;;;;5066389;28;20602;-60
2023/07/30 06:16:37;;;;;;;19.15;6.40;;;37.90;42.00;;;;;;5067607;28;20091;-61
2023/07/30 06:19:03;;;;;;;17.30;7.00;;;37.80;42.50;;;;;;5069894;28;20135;-60
2023/07/30 06:21:30;;;;;;;18.90;8.20;;;37.70;42.80;;;;;;5070340;28;20099;-60
2023/07/30 06:23:56;;;;;;;22.27;6.07;;;37.60;43.30;;;;;;5066159;28;20076;-60
2023/07/30 06:26:23;;;;;;;18.98;6.70;;;37.50;43.60;;;;;;5066687;28;20076;-59
2023/07/30 06:28:49;;;;;;;22.60;6.63;;;37.50;43.90;;;;;;5066759;28;20080;-59
2023/07/30 06:31:15;;;;;;;20.10;6.60;;;37.50;44.20;;;;;;5066845;28;20137;-62
2023/07/30 06:33:42;;;;;;;20.08;6.60;;;37.50;44.40;;;;;;5066152;28;20122;-59
2023/07/30 06:36:08;;;;;;;13.10;6.50;;;37.40;44.60;;;;;;5065365;28;20076;-61
2023/07/30 06:38:34;;;;;;;20.63;6.32;;;37.40;44.70;;;;;;5065409;28;20426;-58
2023/07/30 06:41:01;;;;;;;21.88;6.40;;;37.40;44.90;;;;;;5065605;28;20096;-61
2023/07/30 06:43:27;;;;;;;19.83;5.93;;;37.30;45.00;;;;;;5066222;28;20133;-60
2023/07/30 06:45:54;;;;;;;20.67;5.88;;;37.30;45.20;;;;;;5065124;28;20074;-60
2023/07/30 06:48:21;;;;;;;23.55;6.85;;;37.30;45.40;;;;;;5065459;28;20100;-62
2023/07/30 06:50:47;;;;;;;20.48;6.53;;;37.20;45.60;;;;;;5065109;28;20083;-61
2023/07/30 06:53:13;;;;;;;14.98;6.18;;;37.10;45.80;;;;;;5065301;28;20094;-62
2023/07/30 06:55:40;;;;;;;22.00;6.55;;;37.10;46.00;;;;;;5065280;28;20082;-61
2023/07/30 06:58:06;;;;;;;21.58;6.50;;;37.00;46.10;;;;;;5070094;28;20099;-61
2023/07/30 07:00:33;;;;;;;17.23;6.28;;;37.00;46.20;;;;;;5066071;28;20660;-61
2023/07/30 07:03:01;;;;;;;20.67;6.63;;;37.00;46.80;;;;;;5064687;28;20075;-62
2023/07/30 07:05:27;;;;;;;29.95;6.63;;;36.90;46.70;;;;;;5067291;28;20079;-60
2023/07/30 07:07:54;;;;;;;24.80;6.20;;;36.90;47.00;;;;;;5065166;28;20129;-63
2023/07/30 07:10:20;;;;;;;23.17;6.47;;;36.80;46.80;;;;;;5071248;28;20088;-60
2023/07/30 07:12:47;;;;;;;29.70;7.13;;;36.70;47.90;;;;;;5067090;28;20102;-60
2023/07/30 07:15:13;;;;;;;25.05;6.43;;;36.60;48.10;;;;;;5067476;28;20166;-62
2023/07/30 07:17:40;;;;;;;20.27;5.13;;;36.60;47.80;;;;;;5064708;28;20454;-63
2023/07/30 07:20:07;;;;;;;36.83;5.88;;;36.60;47.70;;;;;;5066189;28;20079;-61
2023/07/30 07:22:34;;;;;;;29.02;7.00;;;36.50;47.80;;;;;;5064827;28;20190;-61
2023/07/30 07:25:01;;;;;;;30.25;6.35;;;36.40;47.90;;;;;;5065140;28;20080;-62
2023/07/30 07:27:27;;;;;;;16.10;5.50;;;36.40;48.10;;;;;;5064487;28;20087;-60
2023/07/30 07:29:53;;;;;;;26.05;6.60;;;36.30;48.20;;;;;;5071609;28;20094;-62
2023/07/30 07:32:20;;;;;;;22.27;6.32;;;36.30;48.40;;;;;;5066691;28;20110;-62
2023/07/30 07:34:48;;;;;;;23.35;6.18;;;36.30;48.40;;;;;;5066874;28;20546;-59
2023/07/30 07:37:16;;;;;;;24.55;5.85;;;36.20;49.00;;;;;;5064416;28;20444;-61
2023/07/30 07:39:46;;;;;;;25.48;6.10;;;36.20;49.00;;;;;;5065408;28;20711;-60
2023/07/30 07:42:12;;;;;;;29.15;6.68;;;36.10;48.90;;;;;;5066201;28;20095;-59
2023/07/30 07:44:39;;;;;;;19.55;5.57;;;36.10;48.90;;;;;;5067428;28;20068;-62
2023/07/30 07:47:05;;;;;;;21.98;5.82;;;36.10;48.80;;;;;;5072102;28;20128;-61
2023/07/30 07:49:32;;;;;;;23.05;7.03;;;36.10;49.60;;;;;;5068642;28;20087;-61
2023/07/30 07:51:58;;;;;;;27.67;5.88;;;36.20;49.50;;;;;;5064719;28;20084;-61
2023/07/30 07:54:24;;;;;;;19.27;5.93;;;36.10;49.80;;;;;;5064708;28;20106;-61
2023/07/30 07:56:51;;;;;;;24.20;6.03;;;36.10;50.30;;;;;;5064787;28;20088;-61
2023/07/30 07:59:17;;;;;;;28.10;6.53;;;36.00;50.20;;;;;;5065270;28;20080;-62
2023/07/30 08:01:43;;;;;;;26.30;6.72;;;35.90;50.20;;;;;;5064611;28;20102;-61
2023/07/30 08:04:10;;;;;;;28.55;6.22;;;35.90;49.90;;;;;;5068768;28;20163;-60
2023/07/30 08:06:36;;;;;;;22.70;5.90;;;35.90;50.00;;;;;;5068891;28;20141;-61
2023/07/30 08:09:03;;;;;;;14.57;5.97;;;35.80;50.10;;;;;;5068629;28;20079;-60
2023/07/30 08:11:29;;;;;;;24.35;6.13;;;35.80;50.70;;;;;;5068457;28;20164;-61
2023/07/30 08:13:56;;;;;;;17.33;5.88;;;35.80;50.70;;;;;;5068305;28;20468;-61
2023/07/30 08:16:23;;;;;;;23.55;6.40;;;35.70;50.50;;;;;;5068187;28;20111;-61
2023/07/30 08:18:49;;;;;;;20.83;6.80;;;35.70;51.00;;;;;;5068439;28;20136;-60
2023/07/30 08:21:17;;;;;;;20.08;6.20;;;35.70;51.20;;;;;;5067824;28;20223;-63
2023/07/30 08:23:44;;;;;;;25.15;6.55;;;35.60;50.70;;;;;;5067689;28;20441;-61
2023/07/30 08:26:10;;;;;;;24.08;6.78;;;35.60;50.80;;;;;;5068166;28;20596;-62
2023/07/30 08:28:36;;;;;;;24.52;7.35;;;35.60;51.20;;;;;;5068836;28;20080;-61
2023/07/30 08:31:03;;;;;;;19.23;7.10;;;35.60;51.40;;;;;;5067791;28;20075;-61
2023/07/30 08:33:29;;;;;;;24.30;7.57;;;35.60;51.60;;;;;;5068401;28;20136;-60
2023/07/30 08:35:59;;;;;;;16.95;6.85;;;35.60;51.70;;;;;;5069760;28;20080;-59
2023/07/30 08:38:26;;;;;;;28.55;8.25;;;35.60;51.30;;;;;;5065524;28;20460;-59
2023/07/30 08:40:52;;;;;;;29.13;8.43;;;35.60;52.40;;;;;;5067750;28;20095;-59
2023/07/30 08:43:19;;;;;;;24.13;7.50;;;35.50;52.10;;;;;;5067820;28;20092;-60
2023/07/30 08:45:46;;;;;;;25.23;6.28;;;35.50;52.40;;;;;;5067040;28;20091;-56
2023/07/30 08:48:13;;;;;;;21.38;5.15;;;35.50;52.80;;;;;;5066907;28;20554;-60
2023/07/30 08:50:39;;;;;;;15.68;4.60;;;35.40;52.90;;;;;;5068487;28;20075;-61
2023/07/30 08:53:08;;;;;;;14.85;4.03;;;35.40;53.10;;;;;;5066551;28;20444;-58
2023/07/30 08:55:35;;;;;;;12.00;4.10;;;35.40;53.20;;;;;;5068526;28;20544;-61
2023/07/30 08:58:05;;;;;;;18.00;4.30;;;35.30;53.50;;;;;;5066648;28;20091;-59
2023/07/30 09:00:35;;;;;;;27.10;4.45;;;35.30;53.60;;;;;;5068761;28;20080;-60
2023/07/30 09:03:04;;;;;;;16.85;4.07;;;35.20;53.70;;;;;;5067631;28;20084;-60
2023/07/30 09:05:30;;;;;;;16.75;4.15;;;35.10;53.70;;;;;;5071523;28;20098;-62
2023/07/30 09:07:58;;;;;;;17.17;4.43;;;35.10;54.10;;;;;;5066068;28;20515;-59
2023/07/30 09:10:27;;;;;;;27.85;4.25;;;35.00;53.90;;;;;;5067554;28;20206;-61
2023/07/30 09:12:55;;;;;;;27.48;4.85;;;34.90;53.70;;;;;;5069028;28;20238;-59
2023/07/30 09:15:32;;;;;;;23.63;5.43;;;34.90;54.00;;;;;;5070003;28;20087;-60
2023/07/30 09:17:59;;;;;;;20.05;4.63;;;34.90;55.20;;;;;;5070482;28;20083;-61
2023/07/30 09:20:25;;;;;;;22.00;4.82;;;34.80;55.30;;;;;;5068941;28;20449;-64
2023/07/30 09:22:52;;;;;;;18.75;4.63;;;34.80;55.70;;;;;;5067555;28;20104;-61
2023/07/30 09:25:22;;;;;;;16.88;4.13;;;34.70;56.00;;;;;;5066839;28;20104;-62
2023/07/30 09:27:51;;;;;;;16.15;4.10;;;34.60;55.80;;;;;;5069344;28;20167;-61
2023/07/30 09:30:25;;;;;;;17.48;4.43;;;34.60;55.60;;;;;;5068678;28;20085;-61
2023/07/30 09:32:53;;;;;;;28.52;4.30;;;34.50;56.10;;;;;;5068203;28;20613;-60
2023/07/30 09:35:20;;;;;;;20.73;4.60;;;34.50;56.30;;;;;;5067187;28;20112;-62
2023/07/30 09:37:47;;;;;;;23.45;5.03;;;34.40;56.00;;;;;;5066225;28;20133;-59
2023/07/30 09:40:15;;;;;;;21.17;5.13;;;34.40;56.70;;;;;;5065902;28;20080;-60
2023/07/30 09:42:47;;;;;;;26.85;5.78;;;34.30;56.80;;;;;;5066655;28;20202;-62
2023/07/30 09:45:25;;;;;;;19.33;5.35;;;34.30;57.30;;;;;;5067185;28;20602;-61
2023/07/30 09:47:54;;;;;;;24.02;5.70;;;34.30;57.20;;;;;;5066639;28;20639;-60
2023/07/30 09:50:20;;;;;;;20.17;5.20;;;34.20;57.00;;;;;;5067947;28;20072;-61
2023/07/30 09:52:47;;;;;;;20.15;4.72;;;34.10;58.00;;;;;;5067478;28;20637;-61
2023/07/30 09:55:13;;;;;;;21.00;4.93;;;34.10;57.50;;;;;;5067730;28;20166;-60
2023/07/30 09:57:40;;;;;;;15.40;4.88;;;34.10;58.10;;;;;;5066238;28;20168;-59
2023/07/30 10:00:11;;;;;;;22.30;4.07;;;33.90;58.50;;;;;;5070804;28;20527;-60
2023/07/30 10:02:45;;;;;;;20.00;4.30;;;33.80;59.20;;;;;;5069298;28;20096;-61
2023/07/30 10:05:15;;;;;;;22.85;4.93;;;33.90;59.40;;;;;;5066568;28;20072;-60
2023/07/30 10:07:54;;;;;;;17.90;4.90;;;33.90;59.20;;;;;;5068102;28;20095;-61
2023/07/30 10:10:24;;;;;;;22.60;4.70;;;33.90;59.30;;;;;;5065992;28;20090;-61
2023/07/30 10:12:53;;;;;;;19.27;4.72;;;33.80;59.50;;;;;;5066053;28;20111;-61
2023/07/30 10:15:23;;;;;;;21.23;4.30;;;33.80;60.50;;;;;;5074093;28;20166;-61
2023/07/30 10:17:57;;;;;;;20.58;4.28;;;33.80;60.50;;;;;;5065988;28;20083;-61
2023/07/30 10:20:29;;;;;;;24.52;4.95;;;33.70;60.80;;;;;;5066672;28;20083;-62
2023/07/30 10:22:57;;;;;;;30.42;4.78;;;33.70;61.40;;;;;;5065863;28;20618;-63
2023/07/30 10:25:45;;;;;;;20.90;4.35;;;33.70;61.30;;;;;;5066024;28;20515;-62
2023/07/30 10:28:29;;;;;;;23.50;6.05;;;33.80;61.70;;;;;;5067125;28;20076;-59
2023/07/30 10:31:00;;;;;;;14.45;4.97;;;33.80;61.50;;;;;;5068991;28;20092;-63
2023/07/30 10:33:46;;;;;;;14.02;4.88;;;33.70;62.20;;;;;;5069993;28;20089;-60
2023/07/30 10:36:13;;;;;;;22.17;5.03;;;33.70;62.70;;;;;;5065956;28;20126;-60
2023/07/30 10:38:41;;;;;;;22.20;5.72;;;33.70;63.10;;;;;;5065791;28;20504;-62
2023/07/30 10:41:14;;;;;;;24.52;7.63;;;33.70;63.30;;;;;;5067931;28;20145;-61
2023/07/30 10:43:42;;;;;;;31.00;9.05;;;33.70;64.20;;;;;;5070249;28;20744;-62
2023/07/30 10:46:11;;;;;;;45.15;11.20;;;33.50;64.40;;;;;;5067290;28;20085;-62
2023/07/30 10:48:45;;;;;;;38.05;9.18;;;33.40;64.30;;;;;;5065406;28;20130;-60
2023/07/30 10:51:15;;;;;;;24.15;7.57;;;33.10;63.80;;;;;;5065909;28;20133;-61
2023/07/30 10:53:49;;;;;;;22.77;7.32;;;33.00;63.80;;;;;;5064954;28;20081;-61
2023/07/30 10:56:25;;;;;;;28.58;7.30;;;32.90;64.30;;;;;;5067957;28;20114;-59
2023/07/30 10:58:53;;;;;;;21.70;5.57;;;32.80;65.20;;;;;;5068114;28;20072;-60
2023/07/30 11:01:20;;;;;;;21.48;5.15;;;32.70;65.20;;;;;;5066321;28;20466;-60
2023/07/30 11:03:53;;;;;;;16.48;4.55;;;32.70;65.30;;;;;;5067628;28;20091;-59
2023/07/30 11:06:27;;;;;;;22.85;5.28;;;32.80;65.10;;;;;;5074074;28;20094;-61
2023/07/30 11:08:53;;;;;;;27.38;5.95;;;32.80;64.40;;;;;;5068994;28;20079;-59
2023/07/30 11:11:24;;;;;;;26.10;5.28;;;32.80;64.00;;;;;;5070825;28;20115;-57
2023/07/30 11:13:51;;;;;;;18.25;5.05;;;32.80;64.00;;;;;;5067885;28;20091;-61
2023/07/30 11:16:17;;;;;;;16.80;5.13;;;32.80;64.10;;;;;;5066493;28;20076;-56
2023/07/30 11:18:46;;;;;;;16.63;4.10;;;32.70;64.10;;;;;;5071235;28;20076;-61
2023/07/30 11:21:17;;;;;;;12.63;3.90;;;32.70;64.80;;;;;;5075282;28;20101;-60
2023/07/30 11:23:45;;;;;;;11.32;3.33;;;32.60;65.00;;;;;;5069243;28;20073;-61
2023/07/30 11:26:20;;;;;;;20.27;4.32;;;32.70;65.10;;;;;;5074686;28;20567;-59
2023/07/30 11:28:47;;;;;;;14.27;3.40;;;32.70;65.10;;;;;;5069273;28;20143;-59
2023/07/30 11:31:18;;;;;;;14.18;3.55;;;32.70;64.90;;;;;;5072373;28;20318;-60
2023/07/30 11:33:47;;;;;;;9.38;3.10;;;32.70;64.80;;;;;;5072753;28;20076;-62
2023/07/30 11:36:23;;;;;;;10.75;2.95;;;32.60;64.50;;;;;;5066203;28;20091;-62
2023/07/30 11:38:52;;;;;;;14.70;2.20;;;32.70;64.10;;;;;;5072563;28;20214;-58
2023/07/30 11:41:21;;;;;;;7.82;2.47;;;32.60;63.80;;;;;;5069778;28;20129;-60
2023/07/30 11:43:48;;;;;;;14.48;2.45;;;32.60;63.60;;;;;;5069431;28;20160;-58
2023/07/30 11:46:16;;;;;;;11.40;2.65;;;32.60;63.40;;;;;;5069524;28;20168;-60
2023/07/30 11:48:45;;;;;;;8.63;3.30;;;32.70;63.70;;;;;;5072451;28;20148;-60
2023/07/30 11:51:29;;;;;;;14.60;4.30;;;32.70;64.10;;;;;;5071186;28;20611;-62
2023/07/30 11:53:59;;;;;;;25.65;6.00;;;32.70;64.20;;;;;;5069888;28;20174;-57
2023/07/30 11:56:26;;;;;;;26.05;3.90;;;32.70;64.60;;;;;;5071599;28;20577;-57
2023/07/30 11:58:58;;;;;;;21.33;4.00;;;32.70;65.50;;;;;;5068589;28;20091;-57
2023/07/30 12:01:27;;;;;;;15.02;2.90;;;32.60;66.30;;;;;;5069243;28;20465;-60
2023/07/30 12:04:01;;;;;;;17.92;3.30;;;32.60;66.20;;;;;;5069797;28;20159;-62
2023/07/30 12:06:47;;;;;;;23.08;3.20;;;32.60;66.80;;;;;;5069362;28;20093;-60
2023/07/30 12:09:22;;;;;;;17.80;2.70;;;32.60;67.50;;;;;;5068793;28;20580;-59
2023/07/30 12:11:59;;;;;;;18.42;2.70;;;32.70;68.20;;;;;;5070626;28;20179;-56
2023/07/30 12:14:43;;;;;;;14.65;3.10;;;32.70;68.90;;;;;;5070116;28;20182;-60
2023/07/30 12:17:09;;;;;;;15.80;3.40;;;32.60;69.80;;;;;;5067030;28;20096;-60
2023/07/30 12:19:36;;;;;;;21.63;3.30;;;32.60;70.80;;;;;;5068319;28;20137;-60
2023/07/30 12:22:03;;;;;;;18.08;3.42;;;32.60;71.60;;;;;;5071400;28;21425;-60
2023/07/30 12:24:29;;;;;;;24.17;4.00;;;32.70;71.70;;;;;;5068893;28;20090;-60
2023/07/30 12:26:56;;;;;;;20.25;3.83;;;32.70;72.70;;;;;;5071613;28;20095;-61
2023/07/30 12:29:22;;;;;;;26.30;4.07;;;32.60;73.20;;;;;;5068592;28;20569;-60
2023/07/30 12:31:51;;;;;;;74.38;4.60;;;32.60;74.00;;;;;;5068276;28;20091;-60
2023/07/30 12:34:18;;;;;;;22.83;3.75;;;32.60;74.50;;;;;;5068889;28;20508;-60
2023/07/30 12:36:44;;;;;;;32.35;4.20;;;32.60;75.30;;;;;;5069304;28;20082;-62
2023/07/30 12:39:11;;;;;;;23.15;4.20;;;32.70;75.80;;;;;;5068772;28;20111;-58
2023/07/30 12:41:37;;;;;;;23.15;3.97;;;32.70;76.20;;;;;;5069730;28;20187;-61